TAF PATK
PATK 280521Z 2806/2906 VRB03KT P6SM SKC=
METAR PATK
WC PATK
WS PATK
WV PATK